Time;durP1;ratioP1;P1;durP2;ratioP2;P2;SDS_P1;SDS_P2;PMS_P1;PMS_P2;Temp;Humidity;BMP_temperature;BMP_pressure;BME280_temperature;BME280_humidity;BME280_pressure;Samples;Min_cycle;Max_cycle;Signal;HPM_P1;HPM_P2
2021/09/27 00:01:38;;;;;;;27.90;20.80;;;;;;;17.18;69.61;99364.63;236099;1195;139972;-60
2021/09/27 00:06:42;;;;;;;29.90;23.50;;;;;;;17.24;69.87;99362.91;235484;1196;139209;-60
2021/09/27 00:11:46;;;;;;;31.90;24.10;;;;;;;17.23;69.70;99366.54;236157;1195;138953;-64
2021/09/27 00:16:49;;;;;;;30.10;23.10;;;;;;;17.20;69.83;99367.21;236197;1195;139047;-60
2021/09/27 00:21:54;;;;;;;28.60;23.00;;;;;;;17.19;69.91;99362.95;236295;1195;139945;-61
2021/09/27 00:26:58;;;;;;;35.30;26.10;;;;;;;17.18;69.84;99361.46;235736;1195;140110;-61
2021/09/27 00:32:01;;;;;;;37.20;26.00;;;;;;;17.16;70.10;99358.20;236056;1195;139269;-62
2021/09/27 00:37:04;;;;;;;38.00;27.30;;;;;;;17.16;69.99;99359.88;236284;1195;139208;-63
2021/09/27 00:42:07;;;;;;;35.90;25.70;;;;;;;17.10;70.00;99352.27;236197;1194;138998;-61
2021/09/27 00:47:10;;;;;;;33.00;25.50;;;;;;;17.09;69.96;99352.51;236328;1195;139320;-62
2021/09/27 00:52:14;;;;;;;40.30;28.20;;;;;;;17.10;70.09;99351.52;236212;1195;139701;-62
2021/09/27 00:57:22;;;;;;;36.70;27.20;;;;;;;17.09;70.17;99355.98;235643;1196;138937;-61
2021/09/27 01:02:27;;;;;;;38.70;27.80;;;;;;;17.07;70.01;99358.64;235890;1195;139899;-63
2021/09/27 01:07:55;;;;;;;35.90;26.10;;;;;;;17.02;70.09;99361.02;235269;1195;138230;-61
2021/09/27 01:13:07;;;;;;;32.70;24.70;;;;;;;17.00;69.92;99364.59;236344;1195;139700;-60
2021/09/27 01:18:32;;;;;;;38.70;26.90;;;;;;;17.00;70.30;99360.81;235937;1195;139427;-61
2021/09/27 01:23:54;;;;;;;39.40;28.50;;;;;;;16.99;70.25;99354.95;236002;1195;138699;-59
2021/09/27 01:29:32;;;;;;;42.60;29.80;;;;;;;16.99;70.34;99350.00;236351;1195;138898;-60
2021/09/27 01:34:43;;;;;;;35.00;25.70;;;;;;;16.94;70.13;99345.20;236359;1195;140892;-61
2021/09/27 01:40:02;;;;;;;40.30;26.70;;;;;;;16.92;70.36;99340.50;236196;1195;140029;-60
2021/09/27 01:45:15;;;;;;;41.00;28.20;;;;;;;16.93;70.32;99341.46;236149;1195;139321;-60
2021/09/27 01:50:49;;;;;;;38.50;27.10;;;;;;;16.96;70.43;99339.95;235859;1195;139057;-63
2021/09/27 01:56:05;;;;;;;40.40;28.10;;;;;;;16.94;70.19;99337.31;235708;1190;139150;-64
2021/09/27 02:01:40;;;;;;;35.40;25.40;;;;;;;16.87;70.16;99337.36;236046;1195;138927;-61
2021/09/27 02:06:49;;;;;;;33.50;23.10;;;;;;;16.84;70.44;99327.02;236234;1195;139667;-62
2021/09/27 02:12:02;;;;;;;33.00;24.30;;;;;;;16.83;70.53;99327.98;235958;1195;139346;-62
2021/09/27 02:17:46;;;;;;;31.70;24.40;;;;;;;16.84;70.48;99330.63;235953;1195;140044;-61
2021/09/27 02:23:09;;;;;;;36.70;26.40;;;;;;;16.81;70.59;99326.00;236135;1194;139010;-62
2021/09/27 02:28:17;;;;;;;31.20;22.90;;;;;;;16.75;70.49;99330.96;236454;1194;139313;-63
2021/09/27 02:33:23;;;;;;;32.40;23.80;;;;;;;16.76;70.55;99327.13;236233;1195;140601;-60
2021/09/27 02:38:36;;;;;;;36.70;25.10;;;;;;;16.75;70.50;99325.73;236157;1195;141427;-60
2021/09/27 02:43:40;;;;;;;42.70;29.10;;;;;;;16.76;70.49;99326.08;235772;1196;138725;-63
2021/09/27 02:48:54;;;;;;;203.80;138.50;;;;;;;16.75;70.66;99325.09;235834;1195;138788;-63
2021/09/27 02:53:57;;;;;;;40.90;27.90;;;;;;;16.75;70.68;99329.21;236240;1195;139763;-60
2021/09/27 02:59:34;;;;;;;34.20;25.10;;;;;;;16.79;70.95;99322.58;236261;1195;139718;-62
2021/09/27 03:04:49;;;;;;;35.80;26.60;;;;;;;17.04;71.07;99320.27;235863;1196;139613;-63
2021/09/27 03:10:13;;;;;;;34.20;26.00;;;;;;;17.01;70.55;99311.76;235779;1195;139156;-63
2021/09/27 03:15:28;;;;;;;38.60;28.30;;;;;;;16.90;70.35;99318.77;236250;1195;138938;-62
2021/09/27 03:20:55;;;;;;;38.80;26.00;;;;;;;16.78;70.35;99327.33;235712;1195;138674;-61
2021/09/27 03:26:13;;;;;;;37.60;28.30;;;;;;;16.72;70.46;99323.33;235858;1195;139952;-62
2021/09/27 03:31:37;;;;;;;49.10;35.60;;;;;;;16.73;70.65;99323.42;235770;1195;140988;-61
2021/09/27 03:36:42;;;;;;;40.90;28.10;;;;;;;16.70;70.54;99324.00;236135;1195;138837;-61
2021/09/27 03:41:47;;;;;;;;;;;;;;;16.65;70.47;99317.48;236115;1195;139107;-61
2021/09/27 03:47:10;;;;;;;41.70;28.40;;;;;;;16.56;70.52;99313.86;236241;1195;124768;-61
2021/09/27 03:52:23;;;;;;;39.80;27.00;;;;;;;16.47;70.42;99303.52;236240;1195;139836;-62
2021/09/27 03:57:36;;;;;;;41.20;25.30;;;;;;;16.40;70.64;99300.33;235992;1195;139994;-60
2021/09/27 04:02:58;;;;;;;36.90;26.80;;;;;;;16.38;70.52;99294.80;235707;1195;139978;-62
2021/09/27 04:08:06;;;;;;;43.10;26.30;;;;;;;16.40;70.84;99301.42;235606;1196;138621;-62
2021/09/27 04:14:03;;;;;;;36.10;25.20;;;;;;;16.42;70.84;99296.92;235919;1195;138913;-61
2021/09/27 04:19:30;;;;;;;35.90;23.30;;;;;;;16.42;70.94;99290.64;235693;1196;139232;-62
2021/09/27 04:25:02;;;;;;;35.70;23.50;;;;;;;16.42;70.78;99292.88;236404;1194;140403;-61
2021/09/27 04:30:23;;;;;;;35.00;24.40;;;;;;;16.41;70.95;99292.78;236357;1195;139682;-61
2021/09/27 04:35:44;;;;;;;36.70;24.70;;;;;;;16.37;70.90;99296.17;235925;1195;138899;-63
2021/09/27 04:41:01;;;;;;;33.60;22.60;;;;;;;16.32;70.84;99291.69;235702;1196;139668;-62
2021/09/27 04:46:12;;;;;;;30.20;19.60;;;;;;;16.29;70.99;99300.02;236066;1195;139456;-62
2021/09/27 04:52:01;;;;;;;26.90;18.80;;;;;;;16.26;70.93;99306.34;236116;1195;139553;-61
2021/09/27 04:57:26;;;;;;;30.50;20.30;;;;;;;16.25;71.24;99306.98;235273;1198;139646;-63
2021/09/27 05:02:42;;;;;;;27.50;20.30;;;;;;;16.23;71.14;99310.33;236202;1195;138768;-60
2021/09/27 05:08:16;;;;;;;35.30;20.60;;;;;;;16.21;71.32;99313.95;236204;1195;139608;-62
2021/09/27 05:13:54;;;;;;;27.80;19.00;;;;;;;16.19;71.37;99321.36;236293;1195;138867;-59
2021/09/27 05:18:57;;;;;;;29.20;20.30;;;;;;;16.21;71.35;99314.40;235855;1195;139351;-59
2021/09/27 05:24:25;;;;;;;29.20;20.00;;;;;;;16.24;71.44;99316.91;235919;1195;140498;-64
2021/09/27 05:29:47;;;;;;;30.10;21.10;;;;;;;16.23;71.45;99315.21;236025;1195;140037;-60
2021/09/27 05:34:59;;;;;;;27.20;18.80;;;;;;;16.20;71.36;99312.52;235892;1195;139781;-64
2021/09/27 05:40:14;;;;;;;28.90;18.30;;;;;;;16.17;71.41;99312.80;236253;1195;138742;-59
2021/09/27 05:45:24;;;;;;;26.40;17.10;;;;;;;16.19;71.39;99318.16;235818;1195;139607;-60
2021/09/27 05:50:40;;;;;;;31.10;21.30;;;;;;;16.22;71.46;99320.06;236128;1195;139298;-62
2021/09/27 05:55:56;;;;;;;29.30;19.40;;;;;;;16.21;71.54;99319.78;236117;1195;138644;-61
2021/09/27 06:01:07;;;;;;;31.30;20.20;;;;;;;16.19;71.33;99326.05;236176;1195;138924;-61
2021/09/27 06:06:41;;;;;;;29.80;18.30;;;;;;;16.15;71.45;99330.70;236090;1195;138826;-63
2021/09/27 06:12:04;;;;;;;28.60;17.00;;;;;;;16.15;71.40;99329.93;236430;1195;139874;-60
2021/09/27 06:17:19;;;;;;;29.00;17.60;;;;;;;16.19;71.73;99334.66;236170;1195;139227;-61
2021/09/27 06:22:53;;;;;;;27.00;18.70;;;;;;;16.32;72.02;99336.24;236119;1195;139289;-61
2021/09/27 06:28:01;;;;;;;27.70;17.60;;;;;;;16.37;71.73;99337.85;236054;1195;138641;-60
2021/09/27 06:33:19;;;;;;;24.40;16.40;;;;;;;16.35;71.67;99332.82;236195;1195;140654;-62
2021/09/27 06:38:34;;;;;;;26.70;18.10;;;;;;;16.31;71.49;99331.69;236210;1195;140318;-62
2021/09/27 06:43:38;;;;;;;28.40;18.60;;;;;;;16.28;71.58;99327.60;236095;1195;139555;-61
2021/09/27 06:48:42;;;;;;;25.10;17.10;;;;;;;16.25;71.48;99326.77;236060;1195;139298;-60
2021/09/27 06:53:45;;;;;;;33.20;18.60;;;;;;;16.23;71.34;99333.44;236395;1194;138940;-60
2021/09/27 06:58:48;;;;;;;29.30;16.80;;;;;;;16.18;71.36;99334.52;236176;1195;139249;-61
2021/09/27 07:03:51;;;;;;;29.30;17.00;;;;;;;16.21;71.69;99345.36;235973;1195;139852;-62
2021/09/27 07:08:55;;;;;;;30.00;19.20;;;;;;;16.24;71.49;99342.98;235762;1196;139442;-60
2021/09/27 07:13:58;;;;;;;31.70;20.10;;;;;;;16.24;71.60;99340.86;235976;1195;142541;-63
2021/09/27 07:19:01;;;;;;;31.70;19.70;;;;;;;16.27;71.83;99339.48;236162;1194;141328;-59
2021/09/27 07:24:05;;;;;;;27.30;17.70;;;;;;;16.26;71.73;99337.23;236079;1195;139127;-62
2021/09/27 07:29:09;;;;;;;28.00;17.60;;;;;;;16.28;71.53;99341.98;235892;1195;140381;-61
2021/09/27 07:34:12;;;;;;;98.70;75.40;;;;;;;16.26;71.38;99343.74;236140;1195;138943;-60
2021/09/27 07:39:15;;;;;;;35.80;24.30;;;;;;;16.28;71.89;99340.14;235498;1195;138646;-62
2021/09/27 07:44:19;;;;;;;29.50;17.70;;;;;;;16.31;71.59;99338.52;235855;1189;139685;-62
2021/09/27 07:49:22;;;;;;;29.40;17.30;;;;;;;16.25;71.34;99335.23;235747;1195;140046;-61
2021/09/27 07:54:25;;;;;;;27.00;16.90;;;;;;;16.26;71.78;99328.90;236046;1195;139923;-61
2021/09/27 07:59:29;;;;;;;27.20;16.90;;;;;;;16.30;71.87;99328.55;235972;1195;139906;-61
2021/09/27 08:04:34;;;;;;;26.90;17.70;;;;;;;16.36;71.90;99324.86;236040;1195;139693;-61
2021/09/27 08:09:37;;;;;;;29.10;17.80;;;;;;;16.40;71.87;99321.29;236080;1195;138654;-61
2021/09/27 08:14:40;;;;;;;24.50;15.90;;;;;;;16.42;71.73;99322.90;235702;1194;139602;-61
2021/09/27 08:19:46;;;;;;;26.80;17.30;;;;;;;16.45;71.55;99325.59;236142;1195;139634;-61
2021/09/27 08:24:49;;;;;;;26.00;17.80;;;;;;;16.43;71.68;99324.08;235786;1196;139502;-61
2021/09/27 08:29:52;;;;;;;28.60;18.20;;;;;;;16.41;71.52;99328.59;235848;1195;139646;-63
2021/09/27 08:34:55;;;;;;;34.00;20.90;;;;;;;16.38;71.44;99324.38;235816;1195;139463;-61
2021/09/27 08:39:58;;;;;;;94.50;68.20;;;;;;;16.35;71.52;99327.82;236200;1195;139627;-62
2021/09/27 08:45:18;;;;;;;32.50;21.80;;;;;;;16.39;71.87;99331.20;235779;1195;139669;-63
2021/09/27 08:50:36;;;;;;;33.30;20.80;;;;;;;16.46;71.88;99329.23;236094;1194;140018;-64
2021/09/27 08:55:39;;;;;;;34.60;21.70;;;;;;;16.52;71.78;99335.69;236279;1195;139228;-64
2021/09/27 09:00:54;;;;;;;44.60;23.00;;;;;;;16.58;72.00;99332.02;236093;1195;139214;-64
2021/09/27 09:06:07;;;;;;;33.80;20.50;;;;;;;16.63;71.94;99328.95;236369;1195;138885;-63
2021/09/27 09:11:28;;;;;;;33.90;20.50;;;;;;;16.71;72.10;99329.12;236198;1195;140080;-62
2021/09/27 09:16:34;;;;;;;36.70;21.40;;;;;;;16.82;72.04;99327.91;236323;1194;140784;-63
2021/09/27 09:21:51;;;;;;;35.60;23.00;;;;;;;16.90;71.97;99329.04;236326;1195;139606;-62
2021/09/27 09:27:02;;;;;;;39.10;23.60;;;;;;;16.93;72.03;99330.39;236268;1194;139877;-62
2021/09/27 09:32:11;;;;;;;33.60;21.00;;;;;;;16.95;71.90;99330.36;236216;1194;140774;-63
2021/09/27 09:37:36;;;;;;;35.30;21.00;;;;;;;16.97;71.76;99330.91;235487;1194;140558;-62
2021/09/27 09:42:40;;;;;;;35.60;23.50;;;;;;;17.02;71.96;99322.07;236186;1195;140754;-64
2021/09/27 09:47:44;;;;;;;42.70;24.60;;;;;;;17.15;72.09;99324.20;236008;1195;139606;-65
2021/09/27 09:52:57;;;;;;;36.30;23.70;;;;;;;17.22;71.80;99321.67;236267;1195;138940;-63
2021/09/27 09:58:25;;;;;;;40.70;22.80;;;;;;;17.27;71.73;99314.44;236364;1195;139309;-62
2021/09/27 10:03:34;;;;;;;35.30;20.50;;;;;;;17.35;71.94;99304.98;236162;1194;140376;-64
2021/09/27 10:08:46;;;;;;;42.00;22.30;;;;;;;17.46;72.02;99303.46;236222;1195;139752;-64
2021/09/27 10:13:54;;;;;;;91.50;51.90;;;;;;;17.64;72.17;99296.69;235530;1194;139640;-64
2021/09/27 10:19:31;;;;;;;55.80;32.20;;;;;;;18.15;73.50;99293.15;235883;1195;138909;-63
2021/09/27 10:24:45;;;;;;;47.20;27.40;;;;;;;18.66;72.99;99288.80;235656;1195;139657;-62
2021/09/27 10:29:56;;;;;;;;;;;;;;;19.22;72.86;99281.02;235282;1195;139827;-63
2021/09/27 10:35:26;;;;;;;38.10;22.40;;;;;;;19.54;72.22;99268.85;235602;1196;124550;-62
2021/09/27 10:40:31;;;;;;;33.70;20.00;;;;;;;19.79;71.54;99262.06;235804;1195;138900;-62
2021/09/27 10:45:37;;;;;;;;;;;;;;;19.94;71.12;99262.08;235631;1196;139336;-62
2021/09/27 10:50:55;;;;;;;30.60;17.30;;;;;;;20.10;70.80;99258.33;235438;1195;125224;-63
2021/09/27 10:56:29;;;;;;;30.90;17.90;;;;;;;20.23;70.37;99254.95;235805;1195;139562;-64
2021/09/27 11:02:00;;;;;;;30.50;17.70;;;;;;;20.36;69.87;99248.79;235742;1196;139513;-62
2021/09/27 11:07:26;;;;;;;31.70;18.60;;;;;;;20.44;69.53;99244.17;236347;1195;140591;-62
2021/09/27 11:12:57;;;;;;;34.10;18.40;;;;;;;20.49;69.27;99240.21;236082;1196;138636;-63
2021/09/27 11:18:06;;;;;;;31.20;19.50;;;;;;;20.52;69.04;99233.77;236023;1195;138910;-65
2021/09/27 11:23:25;;;;;;;30.40;16.50;;;;;;;20.59;68.91;99231.20;236003;1194;139558;-62
2021/09/27 11:28:42;;;;;;;26.90;17.20;;;;;;;20.65;68.81;99225.17;235897;1195;140135;-65
2021/09/27 11:33:58;;;;;;;28.70;17.60;;;;;;;20.76;68.55;99221.86;235930;1195;139280;-65
2021/09/27 11:39:08;;;;;;;28.60;17.10;;;;;;;20.88;68.25;99213.41;235617;1195;139010;-65
2021/09/27 11:44:21;;;;;;;26.20;17.00;;;;;;;20.99;68.09;99212.98;236103;1194;140814;-63
2021/09/27 11:49:32;;;;;;;32.70;14.90;;;;;;;21.09;67.88;99205.18;235984;1195;139389;-64
2021/09/27 11:55:13;;;;;;;19.30;12.50;;;;;;;21.23;67.65;99202.94;236126;1195;139697;-62
2021/09/27 12:00:21;;;;;;;14.50;10.20;;;;;;;21.31;67.40;99196.41;236110;1195;140071;-62
2021/09/27 12:05:45;;;;;;;16.10;10.00;;;;;;;21.36;67.03;99198.05;235962;1195;139174;-63
2021/09/27 12:10:54;;;;;;;11.30;8.80;;;;;;;21.41;66.73;99201.29;235757;1195;139066;-64
2021/09/27 12:16:00;;;;;;;11.70;9.30;;;;;;;21.43;66.66;99198.90;236232;1195;139248;-65
2021/09/27 12:21:10;;;;;;;13.10;8.70;;;;;;;21.43;66.44;99196.54;236125;1193;140575;-64
2021/09/27 12:26:19;;;;;;;10.00;8.00;;;;;;;21.46;66.30;99191.59;235985;1195;141562;-62
2021/09/27 12:31:22;;;;;;;11.20;7.60;;;;;;;21.48;66.02;99189.38;235787;1195;138449;-63
2021/09/27 12:36:25;;;;;;;10.10;8.00;;;;;;;21.53;65.87;99186.54;235857;1195;139032;-66
2021/09/27 12:41:28;;;;;;;11.70;8.00;;;;;;;21.54;65.70;99182.25;235916;1195;139114;-63
2021/09/27 12:46:32;;;;;;;11.20;7.70;;;;;;;21.59;65.80;99177.25;235849;1190;138695;-62
2021/09/27 12:51:51;;;;;;;13.20;8.20;;;;;;;21.68;65.57;99177.13;236060;1195;139739;-63
2021/09/27 12:56:58;;;;;;;10.80;8.00;;;;;;;21.68;65.12;99176.95;236127;1195;139114;-62
2021/09/27 13:02:06;;;;;;;9.10;7.80;;;;;;;21.72;65.06;99183.41;235856;1196;138818;-63
2021/09/27 13:07:15;;;;;;;10.60;7.80;;;;;;;21.79;64.90;99174.96;235888;1195;139987;-60
2021/09/27 13:12:27;;;;;;;12.50;7.80;;;;;;;21.87;64.65;99170.62;235735;1196;138697;-62
2021/09/27 13:17:32;;;;;;;11.00;6.60;;;;;;;21.97;64.51;99169.14;236027;1195;138497;-62
2021/09/27 13:22:42;;;;;;;9.40;6.80;;;;;;;22.16;64.36;99168.63;235722;1195;139675;-63
2021/09/27 13:27:52;;;;;;;10.20;6.60;;;;;;;22.39;64.12;99167.02;235081;1196;138435;-62
2021/09/27 13:33:01;;;;;;;8.20;7.20;;;;;;;22.55;63.73;99162.89;235363;1196;139391;-62
2021/09/27 13:38:10;;;;;;;9.10;6.80;;;;;;;22.57;63.12;99159.95;235439;1195;139146;-62
2021/09/27 13:43:26;;;;;;;48.80;37.10;;;;;;;22.47;62.72;99157.83;235861;1195;138701;-62
2021/09/27 13:48:29;;;;;;;13.00;9.60;;;;;;;22.31;62.52;99149.23;235927;1194;139514;-63
2021/09/27 13:53:37;;;;;;;11.90;7.50;;;;;;;22.12;62.36;99143.58;236067;1195;139377;-62
2021/09/27 13:58:42;;;;;;;10.20;7.50;;;;;;;21.93;62.48;99143.77;235939;1195;139269;-64
2021/09/27 14:03:45;;;;;;;11.30;7.70;;;;;;;21.79;62.41;99144.38;236145;1195;138784;-64
2021/09/27 14:08:49;;;;;;;9.70;7.80;;;;;;;21.64;62.44;99140.34;235772;1196;138443;-66
2021/09/27 14:13:52;;;;;;;10.30;7.10;;;;;;;21.56;62.47;99138.98;235749;1195;139575;-64
2021/09/27 14:18:55;;;;;;;13.60;8.50;;;;;;;21.49;62.58;99135.79;235642;1195;139227;-62
2021/09/27 14:24:01;;;;;;;10.60;7.60;;;;;;;21.47;62.62;99137.71;236029;1195;138770;-63
2021/09/27 14:29:04;;;;;;;11.30;7.30;;;;;;;21.45;62.67;99138.76;235889;1195;138355;-62
2021/09/27 14:34:08;;;;;;;11.90;8.20;;;;;;;21.44;62.67;99139.63;235694;1196;138620;-62
2021/09/27 14:39:11;;;;;;;11.50;7.10;;;;;;;21.41;62.75;99141.58;236188;1195;138699;-63
2021/09/27 14:44:14;;;;;;;13.50;7.90;;;;;;;21.39;62.85;99147.52;236166;1195;139085;-63
2021/09/27 14:49:17;;;;;;;170.60;128.60;;;;;;;21.35;62.78;99149.37;235895;1195;140012;-62
2021/09/27 14:54:20;;;;;;;24.70;18.10;;;;;;;21.32;62.71;99153.37;235889;1196;139473;-61
2021/09/27 14:59:23;;;;;;;15.30;10.70;;;;;;;21.27;62.83;99154.71;236044;1195;139011;-63
2021/09/27 15:04:27;;;;;;;12.40;8.20;;;;;;;21.20;62.76;99153.08;236026;1196;139292;-61
2021/09/27 15:09:30;;;;;;;12.60;8.20;;;;;;;21.19;62.70;99159.71;236055;1195;139553;-60
2021/09/27 15:14:33;;;;;;;11.80;8.40;;;;;;;21.17;62.54;99156.70;235460;1196;139113;-61
2021/09/27 15:19:36;;;;;;;12.30;8.50;;;;;;;21.16;62.76;99164.36;235509;1195;139252;-61
2021/09/27 15:24:40;;;;;;;14.00;9.00;;;;;;;21.14;62.63;99168.55;235475;1195;138369;-66
2021/09/27 15:29:49;;;;;;;12.90;9.30;;;;;;;21.13;62.92;99164.91;235547;1195;138675;-61
2021/09/27 15:34:52;;;;;;;14.50;9.90;;;;;;;21.12;62.89;99164.44;235940;1194;139818;-66
2021/09/27 15:39:55;;;;;;;117.00;84.30;;;;;;;21.08;62.79;99161.42;236053;1195;138574;-61
2021/09/27 15:44:58;;;;;;;26.50;18.80;;;;;;;21.02;62.75;99161.33;235915;1196;139659;-61
2021/09/27 15:50:03;;;;;;;24.60;15.60;;;;;;;21.00;63.10;99162.52;236210;1195;139652;-67
2021/09/27 15:55:07;;;;;;;22.70;16.80;;;;;;;21.02;63.10;99165.45;235924;1195;139290;-62
2021/09/27 16:00:11;;;;;;;35.90;21.90;;;;;;;21.06;63.23;99169.40;236070;1195;139136;-63
2021/09/27 16:05:15;;;;;;;29.20;18.80;;;;;;;21.06;63.45;99174.80;235929;1195;138703;-64
2021/09/27 16:10:18;;;;;;;56.00;40.00;;;;;;;21.03;63.53;99175.84;236112;1195;139451;-66
2021/09/27 16:15:21;;;;;;;37.50;28.70;;;;;;;20.98;63.61;99174.72;236063;1195;139397;-61
2021/09/27 16:20:25;;;;;;;29.20;21.60;;;;;;;20.94;63.52;99178.55;236113;1194;138840;-62
2021/09/27 16:25:28;;;;;;;25.10;18.10;;;;;;;20.90;63.57;99183.64;235335;1196;139682;-62
2021/09/27 16:30:32;;;;;;;31.40;21.80;;;;;;;20.87;63.26;99189.69;235871;1195;139563;-63
2021/09/27 16:35:36;;;;;;;30.50;22.90;;;;;;;20.77;62.68;99194.58;235969;1195;139176;-64
2021/09/27 16:40:39;;;;;;;32.90;20.70;;;;;;;20.64;63.17;99201.43;236020;1195;139560;-64
2021/09/27 16:45:43;;;;;;;28.20;17.10;;;;;;;20.66;63.78;99205.04;235891;1195;140981;-63
2021/09/27 16:50:46;;;;;;;17.60;9.80;;;;;;;20.69;64.11;99204.86;236155;1195;138740;-62
2021/09/27 16:55:52;;;;;;;312.70;239.70;;;;;;;20.70;63.93;99208.79;235406;1196;139492;-62
2021/09/27 17:00:59;;;;;;;21.20;13.00;;;;;;;20.52;62.76;99210.23;236168;1187;139292;-63
2021/09/27 17:06:02;;;;;;;14.20;8.50;;;;;;;20.22;62.32;99213.22;236365;1195;139796;-61
2021/09/27 17:11:06;;;;;;;14.70;8.80;;;;;;;19.90;62.20;99212.73;235667;1195;139335;-62
2021/09/27 17:21:34;;;;;;;14.00;8.40;;;;;;;19.44;62.60;99204.98;236147;1195;139507;-63
2021/09/27 17:26:38;;;;;;;;;;;;;;;19.30;62.73;99212.09;236013;1195;138828;-63
2021/09/27 17:31:44;;;;;;;14.80;8.30;;;;;;;19.16;62.84;99209.29;236131;1194;125551;-62
2021/09/27 17:36:48;;;;;;;19.20;9.60;;;;;;;19.04;62.86;99211.24;235975;1195;139063;-64
2021/09/27 17:41:51;;;;;;;13.30;9.20;;;;;;;18.93;62.87;99219.54;236288;1195;138897;-62
2021/09/27 17:46:55;;;;;;;20.00;10.00;;;;;;;18.77;62.93;99219.38;235501;1196;138765;-62
2021/09/27 17:52:00;;;;;;;21.40;10.00;;;;;;;18.64;63.10;99219.30;235828;1195;139961;-63
2021/09/27 17:57:03;;;;;;;14.50;8.80;;;;;;;18.50;63.21;99216.77;235711;1195;139231;-61
2021/09/27 18:02:08;;;;;;;15.90;9.60;;;;;;;18.41;63.42;99215.86;235935;1195;140008;-62
2021/09/27 18:07:12;;;;;;;418.40;310.90;;;;;;;18.36;63.53;99214.84;235936;1195;139573;-61
2021/09/27 18:12:15;;;;;;;19.40;13.40;;;;;;;18.33;63.63;99219.46;235903;1195;139217;-63
2021/09/27 18:17:18;;;;;;;18.20;9.80;;;;;;;18.27;63.61;99228.27;235369;1196;139607;-62
2021/09/27 18:22:21;;;;;;;16.00;8.20;;;;;;;18.19;63.72;99230.64;235720;1195;138751;-62
2021/09/27 18:27:24;;;;;;;13.70;8.50;;;;;;;18.11;63.62;99231.73;235985;1195;139886;-62
2021/09/27 18:32:27;;;;;;;15.90;8.40;;;;;;;18.01;63.81;99230.97;235652;1196;138782;-61
2021/09/27 18:37:32;;;;;;;11.70;7.60;;;;;;;17.94;63.86;99230.70;236325;1195;139123;-62
2021/09/27 18:42:35;;;;;;;19.00;12.90;;;;;;;17.88;64.04;99230.57;236189;1195;139248;-62
2021/09/27 18:47:39;;;;;;;17.00;7.80;;;;;;;17.85;63.93;99237.27;236288;1195;139929;-62
2021/09/27 18:52:42;;;;;;;12.20;7.10;;;;;;;17.83;64.07;99233.65;235795;1195;139727;-62
2021/09/27 18:57:45;;;;;;;13.90;8.50;;;;;;;17.81;64.06;99242.46;235534;1195;138257;-61
2021/09/27 19:02:49;;;;;;;12.20;7.30;;;;;;;17.77;64.18;99251.45;236064;1194;139534;-61
2021/09/27 19:07:52;;;;;;;13.40;8.20;;;;;;;17.69;64.07;99246.16;236117;1195;139630;-62
2021/09/27 19:12:58;;;;;;;516.60;411.80;;;;;;;17.64;64.21;99247.51;235444;1196;138623;-62
2021/09/27 19:18:02;;;;;;;51.10;33.30;;;;;;;17.60;64.37;99246.94;235830;1196;139870;-62
2021/09/27 19:23:05;;;;;;;15.60;8.10;;;;;;;17.59;64.44;99249.58;235497;1196;139284;-63
2021/09/27 19:28:09;;;;;;;15.10;7.20;;;;;;;17.54;64.16;99249.00;235707;1195;139549;-62
2021/09/27 19:33:13;;;;;;;13.60;7.30;;;;;;;17.47;64.27;99259.23;236055;1195;139913;-63
2021/09/27 19:38:17;;;;;;;23.10;14.70;;;;;;;17.42;64.31;99258.95;235268;1195;138867;-63
2021/09/27 19:43:21;;;;;;;34.40;24.70;;;;;;;17.40;64.55;99257.75;236120;1194;139214;-66
2021/09/27 19:48:25;;;;;;;15.10;7.50;;;;;;;17.40;64.46;99256.61;236017;1195;139270;-62
2021/09/27 19:53:29;;;;;;;14.30;7.20;;;;;;;17.33;64.10;99261.41;236361;1194;210017;-63
2021/09/27 19:58:33;;;;;;;15.20;6.90;;;;;;;17.22;64.02;99265.38;235921;1194;139247;-61
2021/09/27 20:03:36;;;;;;;12.20;7.30;;;;;;;17.09;64.20;99265.78;235866;1194;138595;-61
2021/09/27 20:08:42;;;;;;;11.10;6.00;;;;;;;16.96;64.18;99265.77;236100;1195;139106;-60
2021/09/27 20:13:46;;;;;;;;;;;;;;;16.88;64.22;99268.41;235934;1195;139424;-61
2021/09/27 20:18:48;;;;;;;14.70;6.30;;;;;;;16.82;64.56;99266.44;235818;1194;125748;-62
2021/09/27 20:23:52;;;;;;;14.80;6.20;;;;;;;16.71;64.35;99265.34;236573;1195;139106;-61
2021/09/27 20:28:55;;;;;;;12.50;6.30;;;;;;;16.61;64.39;99269.95;236150;1195;139176;-61
2021/09/27 20:33:58;;;;;;;14.90;6.60;;;;;;;16.48;64.34;99273.89;235858;1195;139193;-62
2021/09/27 20:39:04;;;;;;;12.80;6.40;;;;;;;16.38;64.61;99275.41;235937;1195;138870;-64
2021/09/27 20:44:08;;;;;;;13.50;6.10;;;;;;;16.30;64.51;99276.80;236078;1194;140755;-61
2021/09/27 20:49:11;;;;;;;12.30;5.80;;;;;;;16.23;64.81;99277.17;236278;1195;138661;-61
2021/09/27 20:54:14;;;;;;;9.90;5.60;;;;;;;16.21;64.98;99278.64;236181;1195;139445;-62
2021/09/27 20:59:17;;;;;;;13.30;6.10;;;;;;;16.18;64.90;99281.73;236313;1195;139003;-62
2021/09/27 21:04:20;;;;;;;15.50;6.40;;;;;;;16.17;64.92;99286.66;236116;1195;139064;-63
2021/09/27 21:09:23;;;;;;;16.00;6.60;;;;;;;16.13;64.95;99288.98;236121;1195;139339;-62
2021/09/27 21:14:27;;;;;;;16.70;6.10;;;;;;;16.09;64.89;99287.81;236214;1195;138376;-61
2021/09/27 21:19:30;;;;;;;11.70;5.30;;;;;;;16.03;64.81;99295.08;236400;1189;139464;-63
2021/09/27 21:24:36;;;;;;;9.90;5.00;;;;;;;15.94;64.88;99295.15;236224;1195;138896;-65
2021/09/27 21:29:41;;;;;;;12.70;5.10;;;;;;;15.86;64.84;99298.30;235794;1195;139854;-64
2021/09/27 21:34:44;;;;;;;8.70;4.40;;;;;;;15.81;64.95;99300.10;236001;1195;139340;-63
2021/09/27 21:39:48;;;;;;;11.50;4.70;;;;;;;15.77;64.84;99295.56;235475;1195;138974;-64
2021/09/27 21:44:51;;;;;;;8.80;4.70;;;;;;;15.76;64.67;99295.32;236018;1195;138390;-62
2021/09/27 21:49:54;;;;;;;8.90;3.90;;;;;;;15.74;64.69;99294.19;236384;1194;139296;-60
2021/09/27 21:54:58;;;;;;;10.50;3.80;;;;;;;15.71;64.46;99298.26;236111;1194;138890;-60
2021/09/27 22:00:14;;;;;;;9.00;4.00;;;;;;;15.64;64.34;99303.39;236255;1194;139391;-62
2021/09/27 22:05:18;;;;;;;12.30;4.10;;;;;;;15.55;64.12;99301.55;236111;1195;139061;-61
2021/09/27 22:10:23;;;;;;;9.70;4.00;;;;;;;15.48;64.36;99301.77;235268;1195;138552;-68
2021/09/27 22:15:27;;;;;;;7.60;4.00;;;;;;;15.41;64.04;99303.38;236041;1195;139942;-62
2021/09/27 22:20:31;;;;;;;8.80;4.10;;;;;;;15.33;64.15;99305.60;235827;1195;140685;-61
2021/09/27 22:25:36;;;;;;;10.40;4.00;;;;;;;15.29;64.36;99311.48;235843;1195;139804;-63
2021/09/27 22:30:39;;;;;;;9.70;4.00;;;;;;;15.27;64.23;99317.67;236158;1195;138954;-64
2021/09/27 22:35:43;;;;;;;9.40;4.20;;;;;;;15.24;64.43;99316.14;235980;1195;138393;-63
2021/09/27 22:40:47;;;;;;;9.20;4.40;;;;;;;15.20;64.40;99315.58;236148;1194;138509;-63
2021/09/27 22:45:50;;;;;;;8.80;3.80;;;;;;;15.12;64.32;99316.50;235699;1194;138559;-61
2021/09/27 22:50:55;;;;;;;7.70;4.00;;;;;;;15.05;64.34;99317.93;235927;1194;138451;-64
2021/09/27 22:55:59;;;;;;;10.50;4.20;;;;;;;14.97;64.27;99321.30;235950;1195;138854;-63
2021/09/27 23:01:02;;;;;;;8.80;3.80;;;;;;;14.87;64.32;99320.56;235988;1189;138813;-65
2021/09/27 23:06:05;;;;;;;6.40;3.60;;;;;;;14.78;64.41;99317.67;236185;1195;138694;-62
2021/09/27 23:11:09;;;;;;;8.20;3.70;;;;;;;14.72;64.57;99318.46;236282;1194;139323;-64
2021/09/27 23:16:12;;;;;;;10.60;3.80;;;;;;;14.69;64.70;99327.59;236006;1195;139981;-62
2021/09/27 23:21:15;;;;;;;6.30;3.60;;;;;;;14.67;64.71;99324.01;235661;1188;138786;-61
2021/09/27 23:26:18;;;;;;;10.60;4.20;;;;;;;14.64;64.79;99327.96;236002;1195;139104;-64